createdAt,value
2023-03-31T00:01:45.318Z,1.55
2023-03-31T00:04:13.364Z,1.42
2023-03-31T00:06:43.319Z,1.33
2023-03-31T00:09:18.912Z,1.50
2023-03-31T00:11:45.755Z,1.48
2023-03-31T00:14:12.411Z,1.50
2023-03-31T00:16:39.478Z,1.25
2023-03-31T00:19:06.282Z,1.60
2023-03-31T00:21:36.754Z,1.50
2023-03-31T00:24:06.179Z,1.30
2023-03-31T00:26:34.205Z,1.35
2023-03-31T00:29:01.353Z,1.40
2023-03-31T00:31:28.826Z,1.65
2023-03-31T00:33:58.658Z,1.20
2023-03-31T00:36:29.104Z,1.50
2023-03-31T00:39:09.408Z,1.55
2023-03-31T00:41:39.193Z,1.48
2023-03-31T00:44:14.685Z,1.33
2023-03-31T00:46:52.870Z,1.15
2023-03-31T00:49:42.050Z,1.23
2023-03-31T00:52:18.903Z,1.30
2023-03-31T00:54:49.332Z,1.27
2023-03-31T00:57:16.093Z,1.17
2023-03-31T01:00:01.604Z,1.27
2023-03-31T01:02:28.848Z,1.02
2023-03-31T01:04:59.275Z,0.73
2023-03-31T01:07:34.353Z,1.02
2023-03-31T01:10:05.025Z,1.20
2023-03-31T01:12:34.245Z,1.50
2023-03-31T01:15:01.602Z,0.73
2023-03-31T01:17:29.873Z,1.20
2023-03-31T01:20:32.918Z,1.27
2023-03-31T01:23:28.831Z,1.00
2023-03-31T01:26:01.471Z,0.85
2023-03-31T01:29:05.165Z,0.93
2023-03-31T01:32:04.787Z,1.08
2023-03-31T01:34:31.555Z,1.00
2023-03-31T01:37:09.895Z,1.10
2023-03-31T01:40:02.953Z,0.65
2023-03-31T01:42:34.308Z,0.90
2023-03-31T01:45:38.746Z,1.00
2023-03-31T01:48:14.373Z,0.90
2023-03-31T01:51:05.273Z,0.75
2023-03-31T01:54:05.988Z,0.88
2023-03-31T01:56:39.305Z,0.82
2023-03-31T01:59:15.823Z,1.00
2023-03-31T02:01:56.398Z,0.80
2023-03-31T02:04:29.410Z,0.80
2023-03-31T02:07:03.870Z,0.93
2023-03-31T02:09:38.070Z,0.77
2023-03-31T02:12:09.620Z,0.82
2023-03-31T02:14:41.187Z,1.17
2023-03-31T02:17:18.132Z,1.02
2023-03-31T02:19:49.461Z,1.10
2023-03-31T02:22:19.657Z,0.90
2023-03-31T02:24:48.775Z,1.00
2023-03-31T02:27:28.463Z,0.60
2023-03-31T02:29:55.897Z,0.90
2023-03-31T02:32:25.158Z,0.90
2023-03-31T02:34:54.310Z,0.80
2023-03-31T02:37:20.978Z,0.82
2023-03-31T02:39:50.564Z,1.10
2023-03-31T02:42:18.145Z,1.25
2023-03-31T02:44:44.908Z,0.90
2023-03-31T02:47:17.591Z,0.85
2023-03-31T02:50:00.598Z,1.02
2023-03-31T02:52:58.698Z,0.90
2023-03-31T02:55:51.136Z,0.98
2023-03-31T02:58:25.892Z,1.30
2023-03-31T03:01:08.103Z,1.20
2023-03-31T03:03:58.001Z,1.40
2023-03-31T03:07:10.026Z,1.20
2023-03-31T03:09:56.637Z,1.10
2023-03-31T03:12:31.207Z,1.10
2023-03-31T03:15:09.173Z,0.90
2023-03-31T03:17:39.630Z,0.90
2023-03-31T03:20:08.478Z,0.77
2023-03-31T03:22:39.536Z,1.20
2023-03-31T03:25:12.780Z,0.77
2023-03-31T03:27:39.948Z,1.10
2023-03-31T03:30:08.915Z,0.90
2023-03-31T03:32:35.879Z,0.98
2023-03-31T03:35:04.349Z,1.00
2023-03-31T03:37:31.166Z,0.90
2023-03-31T03:39:57.853Z,0.65
2023-03-31T03:42:24.394Z,0.70
2023-03-31T03:44:50.858Z,0.70
2023-03-31T03:47:17.371Z,0.70
2023-03-31T03:49:45.043Z,0.75
2023-03-31T03:52:11.571Z,0.85
2023-03-31T03:54:38.091Z,0.95
2023-03-31T03:57:04.563Z,1.30
2023-03-31T03:59:31.216Z,1.40
2023-03-31T04:01:57.703Z,1.10
2023-03-31T04:04:24.450Z,1.23
2023-03-31T04:06:51.187Z,1.40
2023-03-31T04:09:18.008Z,1.30
2023-03-31T04:11:44.480Z,1.05
2023-03-31T04:14:10.918Z,1.08
2023-03-31T04:16:38.439Z,1.30
2023-03-31T04:19:05.190Z,1.00
2023-03-31T04:21:34.814Z,0.90
2023-03-31T04:24:04.483Z,1.00
2023-03-31T04:26:42.984Z,0.88
2023-03-31T04:29:16.377Z,1.40
2023-03-31T04:31:43.977Z,1.30
2023-03-31T04:34:15.199Z,1.55
2023-03-31T04:36:46.929Z,1.92
2023-03-31T04:39:18.596Z,1.92
2023-03-31T04:41:45.405Z,1.60
2023-03-31T04:44:11.954Z,1.33
2023-03-31T04:46:38.387Z,1.50
2023-03-31T04:49:05.749Z,1.25
2023-03-31T04:51:32.420Z,1.30
2023-03-31T04:54:01.373Z,1.35
2023-03-31T04:56:27.973Z,1.35
2023-03-31T04:58:54.499Z,1.58
2023-03-31T05:01:21.088Z,1.35
2023-03-31T05:03:48.111Z,1.55
2023-03-31T05:06:16.090Z,1.70
2023-03-31T05:08:43.545Z,1.48
2023-03-31T05:11:10.937Z,1.17
2023-03-31T05:13:37.364Z,1.02
2023-03-31T05:16:12.349Z,1.27
2023-03-31T05:18:38.911Z,1.05
2023-03-31T05:21:15.316Z,1.42
2023-03-31T05:23:42.148Z,1.13
2023-03-31T05:26:09.267Z,1.20
2023-03-31T05:28:36.238Z,1.30
2023-03-31T05:31:04.428Z,1.20
2023-03-31T05:33:31.255Z,1.38
2023-03-31T05:36:00.216Z,1.30
2023-03-31T05:38:31.543Z,1.20
2023-03-31T05:40:58.396Z,1.25
2023-03-31T05:43:25.240Z,1.40
2023-03-31T05:45:51.847Z,1.33
2023-03-31T05:48:18.368Z,0.80
2023-03-31T05:50:44.883Z,1.00
2023-03-31T05:53:11.635Z,1.10
2023-03-31T05:55:39.745Z,1.10
2023-03-31T05:58:06.966Z,1.30
2023-03-31T06:00:33.558Z,1.30
2023-03-31T06:03:02.884Z,1.70
2023-03-31T06:05:31.198Z,1.55
2023-03-31T06:07:57.957Z,1.77
2023-03-31T06:10:24.481Z,1.73
2023-03-31T06:12:51.044Z,1.70
2023-03-31T06:15:17.672Z,1.40
2023-03-31T06:17:47.115Z,1.98
2023-03-31T06:20:27.101Z,1.35
2023-03-31T06:22:56.844Z,1.80
2023-03-31T06:25:23.620Z,1.20
2023-03-31T06:27:53.009Z,1.20
2023-03-31T06:30:19.860Z,1.20
2023-03-31T06:32:46.408Z,1.50
2023-03-31T06:35:12.909Z,1.10
2023-03-31T06:37:39.446Z,1.02
2023-03-31T06:40:06.769Z,1.10
2023-03-31T06:42:33.261Z,0.80
2023-03-31T06:44:59.839Z,1.10
2023-03-31T06:47:26.298Z,1.30
2023-03-31T06:49:52.762Z,1.38
2023-03-31T06:52:19.230Z,1.55
2023-03-31T06:54:45.956Z,1.10
2023-03-31T06:57:13.095Z,1.27
2023-03-31T06:59:39.704Z,1.20
2023-03-31T07:02:06.774Z,1.08
2023-03-31T07:04:33.404Z,1.05
2023-03-31T07:06:59.894Z,1.33
2023-03-31T07:09:26.362Z,1.10
2023-03-31T07:11:56.310Z,1.20
2023-03-31T07:14:23.328Z,1.55
2023-03-31T07:16:50.877Z,1.33
2023-03-31T07:19:17.725Z,1.50
2023-03-31T07:21:44.186Z,1.20
2023-03-31T07:24:10.849Z,1.20
2023-03-31T07:26:37.359Z,1.25
2023-03-31T07:29:03.842Z,1.00
2023-03-31T07:31:30.498Z,1.50
2023-03-31T07:33:57.063Z,1.17
2023-03-31T07:36:23.554Z,1.45
2023-03-31T07:38:50.207Z,1.33
2023-03-31T07:41:20.142Z,1.10
2023-03-31T07:43:47.733Z,1.30
2023-03-31T07:46:16.877Z,1.35
2023-03-31T07:48:44.017Z,1.00
2023-03-31T07:51:10.551Z,1.00
2023-03-31T07:53:37.232Z,1.00
2023-03-31T07:56:04.043Z,0.93
2023-03-31T07:58:30.956Z,0.98
2023-03-31T08:00:57.443Z,1.20
2023-03-31T08:03:23.923Z,1.10
2023-03-31T08:05:54.204Z,0.93
2023-03-31T08:08:21.499Z,1.27
2023-03-31T08:10:48.937Z,1.20
2023-03-31T08:13:15.485Z,1.67
2023-03-31T08:15:42.083Z,1.10
2023-03-31T08:18:08.855Z,0.90
2023-03-31T08:20:35.830Z,0.88
2023-03-31T08:23:02.369Z,0.90
2023-03-31T08:25:28.900Z,1.00
2023-03-31T08:27:56.047Z,1.10
2023-03-31T08:30:22.733Z,1.10
2023-03-31T08:32:49.324Z,0.80
2023-03-31T08:35:15.905Z,0.88
2023-03-31T08:37:42.466Z,0.80
2023-03-31T08:40:17.056Z,0.80
2023-03-31T08:42:50.582Z,1.08
2023-03-31T08:45:22.824Z,0.98
2023-03-31T08:47:54.779Z,0.80
2023-03-31T08:50:29.073Z,0.70
2023-03-31T08:53:09.067Z,0.68
2023-03-31T08:55:49.300Z,0.70
2023-03-31T08:58:48.766Z,0.93
2023-03-31T09:01:44.156Z,0.38
2023-03-31T09:04:35.593Z,0.60
2023-03-31T09:07:24.121Z,0.77
2023-03-31T09:10:07.402Z,0.55
2023-03-31T09:13:08.720Z,1.02
2023-03-31T09:15:54.110Z,1.15
2023-03-31T09:18:29.744Z,1.20
2023-03-31T09:21:07.131Z,1.00
2023-03-31T09:23:40.248Z,0.77
2023-03-31T09:26:25.328Z,0.80
2023-03-31T09:28:53.472Z,0.55
2023-03-31T09:31:22.057Z,0.60
2023-03-31T09:33:52.754Z,0.65
2023-03-31T09:36:22.480Z,0.80
2023-03-31T09:38:49.892Z,0.75
2023-03-31T09:41:18.825Z,0.70
2023-03-31T09:43:47.073Z,0.63
2023-03-31T09:46:29.574Z,0.52
2023-03-31T09:49:06.133Z,0.63
2023-03-31T09:51:37.285Z,0.80
2023-03-31T09:54:22.602Z,0.60
2023-03-31T09:56:53.530Z,0.77
2023-03-31T09:59:22.610Z,0.65
2023-03-31T10:01:56.974Z,0.88
2023-03-31T10:04:25.872Z,1.05
2023-03-31T10:06:54.480Z,0.70
2023-03-31T10:09:26.423Z,1.00
2023-03-31T10:11:59.572Z,1.10
2023-03-31T10:14:33.586Z,0.90
2023-03-31T10:17:05.618Z,1.00
2023-03-31T10:19:37.859Z,1.23
2023-03-31T10:22:34.266Z,1.30
2023-03-31T10:25:17.090Z,1.13
2023-03-31T10:27:47.282Z,1.33
2023-03-31T10:30:21.232Z,1.33
2023-03-31T10:32:51.196Z,0.80
2023-03-31T10:35:25.013Z,0.88
2023-03-31T10:37:57.243Z,0.88
2023-03-31T10:40:26.944Z,0.80
2023-03-31T10:43:04.574Z,0.82
2023-03-31T10:45:38.607Z,0.50
2023-03-31T10:48:18.880Z,0.77
2023-03-31T10:50:46.539Z,0.70
2023-03-31T10:53:15.796Z,0.60
2023-03-31T10:55:48.748Z,0.57
2023-03-31T10:58:34.194Z,0.70
2023-03-31T11:01:17.252Z,0.65
2023-03-31T11:04:02.835Z,0.68
2023-03-31T11:06:52.620Z,0.60
2023-03-31T11:09:38.042Z,0.95
2023-03-31T11:12:24.753Z,0.77
2023-03-31T11:15:16.885Z,0.52
2023-03-31T11:18:00.493Z,0.60
2023-03-31T11:21:27.925Z,0.60
2023-03-31T11:24:06.514Z,0.60
2023-03-31T11:27:12.547Z,0.70
2023-03-31T11:30:13.712Z,0.50
2023-03-31T11:33:00.688Z,0.57
2023-03-31T11:36:04.462Z,0.57
2023-03-31T11:38:55.398Z,0.88
2023-03-31T11:41:46.884Z,0.65
2023-03-31T11:44:17.083Z,0.75
2023-03-31T11:46:50.537Z,0.40
2023-03-31T11:49:28.762Z,0.60
2023-03-31T11:52:09.913Z,0.75
2023-03-31T11:54:53.800Z,0.63
2023-03-31T11:57:35.862Z,0.75
2023-03-31T12:00:16.559Z,0.60
2023-03-31T12:02:58.524Z,0.55
2023-03-31T12:05:27.406Z,0.50
2023-03-31T12:08:11.368Z,0.57
2023-03-31T12:10:43.492Z,0.40
2023-03-31T12:13:46.657Z,0.40
2023-03-31T12:16:24.696Z,0.80
2023-03-31T12:19:03.592Z,0.68
2023-03-31T12:21:33.090Z,0.68
2023-03-31T12:24:02.684Z,0.40
2023-03-31T12:26:36.207Z,0.40
2023-03-31T12:29:19.629Z,0.60
2023-03-31T12:31:47.150Z,0.50
2023-03-31T12:34:15.930Z,0.50
2023-03-31T12:37:10.729Z,0.60
2023-03-31T12:39:45.931Z,0.40
2023-03-31T12:42:34.472Z,0.70
2023-03-31T12:45:26.696Z,0.80
2023-03-31T12:48:35.722Z,0.75
2023-03-31T12:51:24.599Z,0.63
2023-03-31T12:54:03.276Z,0.60
2023-03-31T12:57:04.575Z,1.05
2023-03-31T12:59:39.316Z,0.93
2023-03-31T13:02:26.480Z,0.70
2023-03-31T13:04:53.427Z,0.73
2023-03-31T13:07:29.058Z,0.80
2023-03-31T13:10:18.842Z,0.80
2023-03-31T13:13:18.175Z,0.80
2023-03-31T13:15:59.803Z,1.13
2023-03-31T13:18:27.189Z,0.90
2023-03-31T13:23:35.416Z,0.50
2023-03-31T13:26:02.707Z,0.90
2023-03-31T13:28:42.325Z,0.50
2023-03-31T13:31:15.012Z,0.82
2023-03-31T13:33:51.257Z,0.77
2023-03-31T13:36:18.061Z,0.63
2023-03-31T13:39:12.866Z,0.50
2023-03-31T13:42:17.570Z,0.68
2023-03-31T13:45:09.047Z,0.88
2023-03-31T13:48:06.713Z,0.80
2023-03-31T13:50:55.705Z,1.00
2023-03-31T13:53:49.637Z,0.57
2023-03-31T13:56:28.286Z,0.80
2023-03-31T13:59:13.546Z,0.50
2023-03-31T14:02:21.246Z,0.45
2023-03-31T14:04:56.735Z,0.82
2023-03-31T14:07:32.430Z,1.40
2023-03-31T14:09:59.610Z,0.85
2023-03-31T14:12:37.908Z,0.60
2023-03-31T14:15:19.129Z,0.63
2023-03-31T14:17:45.996Z,0.75
2023-03-31T14:20:39.797Z,0.70
2023-03-31T14:23:22.816Z,0.63
2023-03-31T14:26:22.015Z,0.50
2023-03-31T14:29:02.755Z,1.15
2023-03-31T14:31:55.519Z,0.70
2023-03-31T14:35:00.449Z,0.60
2023-03-31T14:37:28.180Z,0.52
2023-03-31T14:39:57.478Z,0.47
2023-03-31T14:42:39.483Z,0.95
2023-03-31T14:45:31.325Z,0.80
2023-03-31T14:48:16.525Z,0.70
2023-03-31T14:50:45.547Z,0.50
2023-03-31T14:53:16.751Z,0.75
2023-03-31T14:55:57.890Z,1.13
2023-03-31T14:58:38.821Z,0.50
2023-03-31T15:01:08.429Z,0.60
2023-03-31T15:03:41.574Z,0.73
2023-03-31T15:06:09.591Z,0.82
2023-03-31T15:08:37.569Z,0.70
2023-03-31T15:14:03.516Z,0.52
2023-03-31T15:16:45.274Z,0.77
2023-03-31T15:19:16.679Z,0.80
2023-03-31T15:21:44.037Z,0.90
2023-03-31T15:24:14.884Z,0.88
2023-03-31T15:26:48.484Z,0.70
2023-03-31T15:29:22.352Z,0.90
2023-03-31T15:31:49.633Z,0.57
2023-03-31T15:34:31.325Z,1.10
2023-03-31T15:36:57.941Z,0.82
2023-03-31T15:39:28.436Z,0.75
2023-03-31T15:41:56.710Z,0.60
2023-03-31T15:44:46.888Z,0.77
2023-03-31T15:47:18.937Z,0.90
2023-03-31T15:49:58.922Z,0.68
2023-03-31T15:52:38.349Z,0.57
2023-03-31T15:55:23.706Z,0.80
2023-03-31T15:57:51.853Z,0.73
2023-03-31T16:00:33.837Z,0.57
2023-03-31T16:03:03.874Z,0.40
2023-03-31T16:05:54.335Z,0.80
2023-03-31T16:08:56.301Z,0.60
2023-03-31T16:11:28.200Z,0.50
2023-03-31T16:13:59.792Z,0.57
2023-03-31T16:16:29.432Z,0.60
2023-03-31T16:19:07.341Z,0.47
2023-03-31T16:21:39.991Z,0.73
2023-03-31T16:24:07.084Z,0.40
2023-03-31T16:26:34.130Z,0.93
2023-03-31T16:29:01.083Z,0.90
2023-03-31T16:31:43.153Z,0.60
2023-03-31T16:34:11.355Z,1.05
2023-03-31T16:36:38.153Z,0.68
2023-03-31T16:39:06.676Z,0.52
2023-03-31T16:41:34.572Z,1.40
2023-03-31T16:44:01.144Z,0.80
2023-03-31T16:46:27.728Z,0.68
2023-03-31T16:48:54.353Z,0.73
2023-03-31T16:51:20.934Z,0.70
2023-03-31T16:53:48.096Z,0.77
2023-03-31T16:56:15.669Z,0.88
2023-03-31T16:58:43.633Z,0.70
2023-03-31T17:01:13.047Z,0.60
2023-03-31T17:03:41.579Z,0.55
2023-03-31T17:06:11.941Z,0.52
2023-03-31T17:08:39.662Z,0.60
2023-03-31T17:11:10.952Z,0.60
2023-03-31T17:13:39.588Z,0.70
2023-03-31T17:16:17.506Z,0.60
2023-03-31T17:18:45.604Z,0.90
2023-03-31T17:21:14.696Z,0.60
2023-03-31T17:23:44.957Z,1.13
2023-03-31T17:26:15.722Z,1.40
2023-03-31T17:28:45.518Z,1.33
2023-03-31T17:31:15.602Z,1.15
2023-03-31T17:33:42.515Z,0.93
2023-03-31T17:36:09.963Z,0.70
2023-03-31T17:38:38.520Z,0.95
2023-03-31T17:41:08.256Z,0.93
2023-03-31T17:43:35.753Z,0.85
2023-03-31T17:46:05.232Z,0.70
2023-03-31T17:48:34.382Z,0.93
2023-03-31T17:51:09.502Z,1.10
2023-03-31T17:53:36.747Z,0.90
2023-03-31T17:56:04.353Z,1.05
2023-03-31T17:58:32.213Z,0.70
2023-03-31T18:00:59.192Z,0.90
2023-03-31T18:03:28.845Z,1.15
2023-03-31T18:05:56.296Z,0.95
2023-03-31T18:08:23.036Z,0.85
2023-03-31T18:10:50.528Z,1.20
2023-03-31T18:13:17.545Z,1.10
2023-03-31T18:15:51.495Z,1.30
2023-03-31T18:18:19.035Z,1.10
2023-03-31T18:20:45.948Z,1.08
2023-03-31T18:23:12.569Z,1.10
2023-03-31T18:25:44.022Z,1.15
2023-03-31T18:28:10.910Z,1.35
2023-03-31T18:30:37.940Z,1.25
2023-03-31T18:33:05.121Z,1.70
2023-03-31T18:35:32.264Z,1.25
2023-03-31T18:37:59.219Z,1.20
2023-03-31T18:40:26.184Z,1.30
2023-03-31T18:42:52.915Z,1.58
2023-03-31T18:45:19.654Z,1.33
2023-03-31T18:47:46.580Z,1.77
2023-03-31T18:50:13.936Z,2.10
2023-03-31T18:52:41.302Z,1.30
2023-03-31T18:55:08.221Z,1.50
2023-03-31T18:57:37.145Z,1.10
2023-03-31T19:00:05.422Z,1.40
2023-03-31T19:02:33.070Z,1.33
2023-03-31T19:05:00.334Z,1.80
2023-03-31T19:07:26.926Z,1.35
2023-03-31T19:09:53.736Z,1.58
2023-03-31T19:12:22.277Z,1.40
2023-03-31T19:14:48.854Z,1.30
2023-03-31T19:17:15.640Z,0.60
2023-03-31T19:19:42.319Z,0.90
2023-03-31T19:22:09.578Z,0.85
2023-03-31T19:24:36.724Z,0.70
2023-03-31T19:27:04.250Z,0.70
2023-03-31T19:29:31.864Z,0.93
2023-03-31T19:31:58.418Z,0.85
2023-03-31T19:34:25.052Z,1.13
2023-03-31T19:36:51.586Z,0.88
2023-03-31T19:39:18.170Z,0.50
2023-03-31T19:41:44.633Z,0.73
2023-03-31T19:44:11.621Z,0.70
2023-03-31T19:46:38.151Z,0.68
2023-03-31T19:49:05.173Z,0.75
2023-03-31T19:51:31.817Z,0.70
2023-03-31T19:53:58.548Z,0.90
2023-03-31T19:56:25.658Z,0.75
2023-03-31T19:58:53.610Z,0.77
2023-03-31T20:01:27.374Z,0.73
2023-03-31T20:03:54.712Z,0.43
2023-03-31T20:06:29.969Z,0.63
2023-03-31T20:09:01.067Z,0.90
2023-03-31T20:11:30.851Z,1.00
2023-03-31T20:13:57.906Z,1.00
2023-03-31T20:16:28.019Z,1.20
2023-03-31T20:19:06.222Z,1.00
2023-03-31T20:21:35.798Z,0.65
2023-03-31T20:24:02.792Z,1.00
2023-03-31T20:26:30.691Z,0.82
2023-03-31T20:28:59.289Z,0.60
2023-03-31T20:31:28.913Z,0.70
2023-03-31T20:33:56.710Z,0.70
2023-03-31T20:36:27.203Z,0.80
2023-03-31T20:38:58.047Z,0.85
2023-03-31T20:41:27.791Z,1.13
2023-03-31T20:43:55.505Z,0.95
2023-03-31T20:46:23.101Z,0.90
2023-03-31T20:48:52.172Z,1.10
2023-03-31T20:51:21.900Z,0.75
2023-03-31T20:53:50.347Z,1.13
2023-03-31T20:56:21.947Z,0.65
2023-03-31T20:58:49.781Z,0.70
2023-03-31T21:01:18.415Z,0.90
2023-03-31T21:03:46.491Z,1.00
2023-03-31T21:06:14.561Z,1.20
2023-03-31T21:08:47.057Z,1.10
2023-03-31T21:11:14.441Z,1.20
2023-03-31T21:13:41.205Z,1.42
2023-03-31T21:16:07.870Z,1.20
2023-03-31T21:18:37.313Z,1.17
2023-03-31T21:21:06.848Z,1.08
2023-03-31T21:23:33.578Z,1.17
2023-03-31T21:26:02.224Z,1.25
2023-03-31T21:28:31.699Z,1.23
2023-03-31T21:31:05.551Z,0.85
2023-03-31T21:33:33.535Z,1.20
2023-03-31T21:36:00.294Z,0.98
2023-03-31T21:38:28.954Z,1.10
2023-03-31T21:40:55.882Z,1.10
2023-03-31T21:43:23.279Z,1.25
2023-03-31T21:45:53.242Z,1.15
2023-03-31T21:48:25.220Z,1.33
2023-03-31T21:50:54.611Z,1.08
2023-03-31T21:53:24.921Z,1.10
2023-03-31T21:55:53.500Z,1.30
2023-03-31T21:58:20.101Z,1.05
2023-03-31T22:00:47.452Z,1.58
2023-03-31T22:03:26.447Z,0.90
2023-03-31T22:05:56.013Z,1.17
2023-03-31T22:08:23.182Z,1.05
2023-03-31T22:10:50.728Z,1.30
2023-03-31T22:13:18.156Z,1.20
2023-03-31T22:15:45.189Z,1.00
2023-03-31T22:18:11.975Z,0.95
2023-03-31T22:20:39.278Z,1.08
2023-03-31T22:23:06.353Z,1.40
2023-03-31T22:25:34.135Z,1.20
2023-03-31T22:28:01.832Z,1.20
2023-03-31T22:30:28.442Z,1.20
2023-03-31T22:32:55.501Z,1.00
2023-03-31T22:35:22.717Z,1.10
2023-03-31T22:37:49.327Z,1.50
2023-03-31T22:40:16.298Z,1.38
2023-03-31T22:42:42.979Z,1.77
2023-03-31T22:45:12.202Z,1.50
2023-03-31T22:47:38.799Z,1.60
2023-03-31T22:50:07.041Z,1.70
2023-03-31T22:52:33.622Z,1.45
2023-03-31T22:55:00.818Z,1.95
2023-03-31T22:57:29.063Z,2.10
2023-03-31T22:59:55.613Z,1.63
2023-03-31T23:02:22.128Z,1.88
2023-03-31T23:04:48.783Z,1.60
2023-03-31T23:07:16.927Z,1.33
2023-03-31T23:09:43.397Z,1.30
2023-03-31T23:12:10.278Z,0.95
2023-03-31T23:14:36.998Z,1.02
2023-03-31T23:17:03.740Z,1.02
2023-03-31T23:19:30.781Z,1.00
2023-03-31T23:21:58.519Z,1.00
2023-03-31T23:24:25.337Z,0.80
2023-03-31T23:26:52.400Z,0.85
2023-03-31T23:29:19.084Z,0.80
2023-03-31T23:31:45.783Z,0.77
2023-03-31T23:34:13.974Z,0.90
2023-03-31T23:36:40.639Z,1.10
2023-03-31T23:39:07.148Z,0.70
2023-03-31T23:41:34.863Z,0.80
2023-03-31T23:44:01.757Z,0.75
2023-03-31T23:46:29.748Z,0.75
2023-03-31T23:48:56.634Z,0.85
2023-03-31T23:51:23.624Z,0.77
2023-03-31T23:53:51.463Z,0.85
2023-03-31T23:56:18.419Z,0.88
2023-03-31T23:58:45.121Z,0.73
